29/8 a 7/9: Ciclogenesis, frio a fresco. Tº variable en NEA

nahuel
Mensajes: 2692
Registrado: Vie May 09, 2014 2:20 am
Ubicación: santa rosa, La Pampa

Re: 29/8 a 7/9: Ciclogenesis, frio a fresco. Tº variable en NEA

Mensaje por nahuel » Sab Sep 05, 2020 7:49 pm

Exacto dia muy frio!!

Llueve de forma moderada a intensa cada tanto desde hace 2 horas !!

Avatar de Usuario
mateix
Mensajes: 5588
Registrado: Mié Abr 11, 2012 10:35 am

Re: 29/8 a 7/9: Ciclogenesis, frio a fresco. Tº variable en NEA

Mensaje por mateix » Sab Sep 05, 2020 8:46 pm

Soplando con ganas los sudestes en Costanera Norte.
Se me vuelan las chapas :o
Claves para leer correctamente el pronóstico del SMN:

Lluvias/tormentas: parcialmente nublado
Cubierto: algo nublado
Parcialmente nublado: despejado
Despejado: despejado

Avatar de Usuario
Ezequiel1995
Mensajes: 1211
Registrado: Mar Nov 12, 2019 4:50 pm
Ubicación: Merlo, Buenos Aires
Contactar:

Re: 29/8 a 7/9: Ciclogenesis, frio a fresco. Tº variable en NEA

Mensaje por Ezequiel1995 » Sab Sep 05, 2020 8:49 pm

Acá no hay viento pero sí está bastante frio. Más de lo que esperaba! Parece Junio

Avatar de Usuario
Marg Tor
Mensajes: 1678
Registrado: Jue Sep 20, 2018 8:54 pm
Ubicación: Rosario

Re: 29/8 a 7/9: Ciclogenesis, frio a fresco. Tº variable en NEA

Mensaje por Marg Tor » Sab Sep 05, 2020 9:58 pm

El viento había calmado a la tardecita. Ahora aumentó la intensidad con ráfagas +30 km/h.
Nena, vi un rayo... vuelvo en unas horas...
Te duele el calor y la humedad? Adermicina.
EMA Villa Gdor. Gálvez
EMA Villa Gdor. Gálvez Cooperativa

Avatar de Usuario
Diecha
Mensajes: 11516
Registrado: Jue Ago 25, 2011 9:31 pm
Ubicación: Lomas de Zamora

Re: 29/8 a 7/9: Ciclogenesis, frio a fresco. Tº variable en NEA

Mensaje por Diecha » Sab Sep 05, 2020 11:40 pm

Imagen

Imagen
Spoiler
Mostrar
Imagen
Imagen
Imagen
Imagen
Imagen
Imagen
Imagen
Imagen
Imagen
Imagen
Última edición por Diecha el Dom Sep 06, 2020 1:18 am, editado 1 vez en total.

Avatar de Usuario
Santiago Linari
Mensajes: 8039
Registrado: Sab Dic 29, 2012 4:28 pm
Ubicación: Challao, Mendoza

Re: 29/8 a 7/9: Ciclogenesis, frio a fresco. Tº variable en NEA

Mensaje por Santiago Linari » Dom Sep 06, 2020 12:04 am

A primeras horas de la tarde vi nubes con cierto desarrollo vertical. El mismo que suelen tener las nubes de aire frío.
Lo primero en meses.
¡Oops!

Algo salió mal

Avatar de Usuario
Diecha
Mensajes: 11516
Registrado: Jue Ago 25, 2011 9:31 pm
Ubicación: Lomas de Zamora

Re: 29/8 a 7/9: Ciclogenesis, frio a fresco. Tº variable en NEA

Mensaje por Diecha » Dom Sep 06, 2020 1:18 am

- Resistencia 01 hs: SARE 060400Z 16009KT CAVOK 19/13 Q1014
- Reconquista 01 hs: SATR 060400Z 14006KT 8000 NSC 15/14 Q1016

Imagen
Imagen

- Paso de los Libres 01 hs: SARL 060400Z 18010KT 9999 TS OVC020 FEW045CB 14/13 Q1017

Imagen

Avatar de Usuario
pupy
Mensajes: 2432
Registrado: Mar Mar 02, 2010 7:15 pm
Ubicación: Cordoba capital

Re: 29/8 a 7/9: Ciclogenesis, frio a fresco. Tº variable en NEA

Mensaje por pupy » Dom Sep 06, 2020 1:28 am

Ahhhh bueno !!! con 1 o 2 celdas me conformo con que haya aca en cordoba !!! impresionante Corrientes y Extremo NE santafesino!!
PD: .uchisima actividad electrica en Rio grande do sul !!

Avatar de Usuario
Diecha
Mensajes: 11516
Registrado: Jue Ago 25, 2011 9:31 pm
Ubicación: Lomas de Zamora

Re: 29/8 a 7/9: Ciclogenesis, frio a fresco. Tº variable en NEA

Mensaje por Diecha » Dom Sep 06, 2020 1:38 am

- Paso de los Libres 01:15 hs: SARL 060415Z 14015KT 4000 TSRA OVC030 FEW045CB 14/13 Q1017

Imagen

Avatar de Usuario
Santiago Linari
Mensajes: 8039
Registrado: Sab Dic 29, 2012 4:28 pm
Ubicación: Challao, Mendoza

Re: 29/8 a 7/9: Ciclogenesis, frio a fresco. Tº variable en NEA

Mensaje por Santiago Linari » Dom Sep 06, 2020 2:11 am

Mirá ese radar!! :o :o
¡Oops!

Algo salió mal

Responder